Time;durP1;ratioP1;P1;durP2;ratioP2;P2;SDS_P1;SDS_P2;PMS_P1;PMS_P2;Temp;Humidity;BMP_temperature;BMP_pressure;BME280_temperature;BME280_humidity;BME280_pressure;Samples;Min_cycle;Max_cycle;Signal;HPM_P1;HPM_P2
2022/06/22 00:02:02;;;;;;;2.72;2.05;;;14.50;99.90;;;;;;4916435;29;20195;-77
2022/06/22 00:04:52;;;;;;;4.70;1.75;;;14.50;99.90;;;;;;4917894;29;20388;-77
2022/06/22 00:07:27;;;;;;;1.70;1.60;;;14.40;99.90;;;;;;4916268;29;20135;-77
2022/06/22 00:10:22;;;;;;;3.70;2.10;;;14.40;99.90;;;;;;4917799;29;20469;-77
2022/06/22 00:12:54;;;;;;;1.65;1.55;;;14.40;99.90;;;;;;4918863;29;20039;-77
2022/06/22 00:15:34;;;;;;;2.00;1.80;;;14.30;99.90;;;;;;4921518;29;20028;-78
2022/06/22 00:18:02;;;;;;;3.15;2.00;;;14.40;99.90;;;;;;4920305;29;20034;-77
2022/06/22 00:20:32;;;;;;;3.00;1.75;;;14.40;99.90;;;;;;4921485;29;20036;-77
2022/06/22 00:22:57;;;;;;;;;;;14.30;99.90;;;;;;4921734;29;20043;-77
2022/06/22 00:25:32;;;;;;;3.50;1.70;;;14.30;99.90;;;;;;4921244;29;19993;-77
2022/06/22 00:28:30;;;;;;;1.98;1.88;;;14.20;99.90;;;;;;4921490;29;20150;-77
2022/06/22 00:31:01;;;;;;;3.35;2.10;;;14.20;99.90;;;;;;4921222;29;20094;-77
2022/06/22 00:33:27;;;;;;;1.88;1.77;;;14.20;99.90;;;;;;4920377;29;20036;-77
2022/06/22 00:35:53;;;;;;;2.33;1.98;;;14.10;99.90;;;;;;4921166;29;20020;-77
2022/06/22 00:38:30;;;;;;;2.03;1.80;;;14.10;99.90;;;;;;4920870;29;20097;-77
2022/06/22 00:41:12;;;;;;;2.80;1.95;;;14.10;99.90;;;;;;4919817;29;20034;-77
2022/06/22 00:43:38;;;;;;;4.70;2.03;;;14.00;99.90;;;;;;4919792;29;20039;-77
2022/06/22 00:46:23;;;;;;;2.83;1.92;;;14.00;99.90;;;;;;4920945;29;20036;-77
2022/06/22 00:48:52;;;;;;;7.25;2.78;;;14.00;99.90;;;;;;4921268;29;20024;-77
2022/06/22 00:51:22;;;;;;;2.22;2.00;;;14.00;99.90;;;;;;4920882;29;20059;-77
2022/06/22 00:54:04;;;;;;;1.95;1.85;;;14.00;99.90;;;;;;4919385;29;20036;-77
2022/06/22 00:56:52;;;;;;;3.65;2.08;;;14.00;99.90;;;;;;4919717;29;20035;-77
2022/06/22 00:59:22;;;;;;;2.55;2.13;;;13.90;99.90;;;;;;4920727;29;20046;-77
2022/06/22 01:02:02;;;;;;;3.55;1.90;;;13.90;99.90;;;;;;4920715;29;20028;-77
2022/06/22 01:04:50;;;;;;;2.42;1.85;;;13.80;99.90;;;;;;4920848;29;20043;-77
2022/06/22 01:07:37;;;;;;;2.33;2.17;;;13.80;99.90;;;;;;4920617;29;20039;-77
2022/06/22 01:10:05;;;;;;;2.80;1.90;;;13.80;99.90;;;;;;4920323;29;20032;-76
2022/06/22 01:12:39;;;;;;;2.27;2.10;;;13.80;99.90;;;;;;4920531;29;20039;-77
2022/06/22 01:15:12;;;;;;;2.50;2.30;;;13.80;99.90;;;;;;4921099;29;20044;-77
2022/06/22 01:18:01;;;;;;;3.47;2.55;;;13.70;99.90;;;;;;4920536;29;20032;-77
2022/06/22 01:21:00;;;;;;;3.90;2.25;;;13.70;99.90;;;;;;4918927;29;20029;-77
2022/06/22 01:24:04;;;;;;;2.45;2.10;;;13.60;99.90;;;;;;4920808;29;20536;-77
2022/06/22 01:27:09;;;;;;;5.20;2.50;;;13.60;99.90;;;;;;4920100;29;20110;-77
2022/06/22 01:29:35;;;;;;;2.97;2.42;;;13.60;99.90;;;;;;4919951;29;20092;-77
2022/06/22 01:32:12;;;;;;;3.42;2.33;;;13.60;99.90;;;;;;4920258;29;20071;-77
2022/06/22 01:34:42;;;;;;;3.90;2.50;;;13.60;99.90;;;;;;4920187;29;20036;-77
2022/06/22 01:37:12;;;;;;;;;;;13.60;99.90;;;;;;4920275;29;20048;-76
2022/06/22 01:39:38;;;;;;;3.03;2.72;;;13.50;99.90;;;;;;4920647;29;19911;-77
2022/06/22 01:42:32;;;;;;;2.70;2.50;;;13.50;99.90;;;;;;4918964;29;20039;-77
2022/06/22 01:45:09;;;;;;;6.78;2.22;;;13.50;99.90;;;;;;4919182;29;20055;-77
2022/06/22 01:47:49;;;;;;;3.95;2.47;;;13.60;99.90;;;;;;4919885;29;20046;-77
2022/06/22 01:50:25;;;;;;;2.92;2.20;;;13.60;99.90;;;;;;4919684;29;20473;-77
2022/06/22 01:53:13;;;;;;;3.35;2.22;;;13.60;99.90;;;;;;4918577;29;20028;-77
2022/06/22 01:55:44;;;;;;;2.25;2.05;;;13.60;99.90;;;;;;4919805;29;20118;-77
2022/06/22 01:58:12;;;;;;;2.88;2.03;;;13.50;99.90;;;;;;4918439;29;20028;-77
2022/06/22 02:00:38;;;;;;;7.13;2.40;;;13.50;99.90;;;;;;4919702;29;20032;-77
2022/06/22 02:03:16;;;;;;;3.72;2.63;;;13.60;99.90;;;;;;4919829;29;20091;-77
2022/06/22 02:06:01;;;;;;;2.67;2.22;;;13.60;99.90;;;;;;4919601;29;20020;-77
2022/06/22 02:08:36;;;;;;;3.05;2.35;;;13.60;99.90;;;;;;4918354;29;20032;-77
2022/06/22 02:11:07;;;;;;;3.00;2.30;;;13.60;99.90;;;;;;4919579;29;20107;-77
2022/06/22 02:13:52;;;;;;;3.70;2.58;;;13.60;99.90;;;;;;4919348;29;20437;-77
2022/06/22 02:16:30;;;;;;;3.80;2.40;;;13.50;99.90;;;;;;4917829;29;20059;-77
2022/06/22 02:18:58;;;;;;;3.15;2.42;;;13.50;99.90;;;;;;4918056;29;20115;-77
2022/06/22 02:21:44;;;;;;;3.22;2.30;;;13.50;99.90;;;;;;4919386;29;20372;-77
2022/06/22 02:24:33;;;;;;;4.70;2.33;;;13.50;99.90;;;;;;4919307;29;20036;-77
2022/06/22 02:27:10;;;;;;;2.60;2.40;;;13.50;99.90;;;;;;4919290;29;20044;-77
2022/06/22 02:29:46;;;;;;;2.90;2.50;;;13.50;99.90;;;;;;4919224;29;20062;-77
2022/06/22 02:32:24;;;;;;;2.63;2.42;;;13.50;99.90;;;;;;4917830;29;20050;-77
2022/06/22 02:34:53;;;;;;;2.80;2.45;;;13.40;99.90;;;;;;4919254;29;20036;-77
2022/06/22 02:37:20;;;;;;;;;;;13.40;99.90;;;;;;4919155;29;20388;-77
2022/06/22 02:39:53;;;;;;;2.67;2.47;;;13.50;99.90;;;;;;4919264;29;19954;-77
2022/06/22 02:45:06;;;;;;;4.22;2.40;;;13.50;99.90;;;;;;4918693;29;20377;-77
2022/06/22 02:47:43;;;;;;;4.97;2.67;;;13.40;99.90;;;;;;4918798;29;20083;-77
2022/06/22 02:50:15;;;;;;;6.40;2.60;;;13.40;99.90;;;;;;4918942;29;20035;-77
2022/06/22 02:52:47;;;;;;;2.72;2.53;;;13.40;99.90;;;;;;4917656;29;20055;-77
2022/06/22 02:55:16;;;;;;;3.20;2.90;;;13.40;99.90;;;;;;4913747;29;20032;-77
2022/06/22 02:57:41;;;;;;;2.63;2.42;;;13.40;99.90;;;;;;4918898;29;20038;-76
2022/06/22 03:00:08;;;;;;;2.88;2.47;;;13.40;99.90;;;;;;4918644;29;20024;-76
2022/06/22 03:02:34;;;;;;;2.33;2.22;;;13.40;99.90;;;;;;4917251;29;20037;-77
2022/06/22 03:05:00;;;;;;;3.92;2.20;;;13.40;99.90;;;;;;4918543;29;20076;-77
2022/06/22 03:07:28;;;;;;;3.70;2.42;;;13.40;99.90;;;;;;4918419;29;20043;-77
2022/06/22 03:09:54;;;;;;;8.23;2.50;;;13.40;99.90;;;;;;4918404;29;20083;-77
2022/06/22 03:12:20;;;;;;;3.10;2.38;;;13.40;99.90;;;;;;4916868;29;20115;-76
2022/06/22 03:15:02;;;;;;;5.32;2.50;;;13.40;99.90;;;;;;4918416;29;20031;-76
2022/06/22 03:17:38;;;;;;;3.28;2.65;;;13.40;99.90;;;;;;4918717;29;20040;-77
2022/06/22 03:20:22;;;;;;;7.03;2.40;;;13.40;99.90;;;;;;4917353;29;20051;-76
2022/06/22 03:22:52;;;;;;;2.50;2.30;;;13.40;99.90;;;;;;4918640;29;20119;-76
2022/06/22 03:25:46;;;;;;;2.83;2.45;;;13.40;99.90;;;;;;4916741;29;20032;-76
2022/06/22 03:28:21;;;;;;;3.05;2.85;;;13.40;99.90;;;;;;4918280;29;20056;-77
2022/06/22 03:30:57;;;;;;;6.05;3.47;;;13.40;99.90;;;;;;4918098;29;20376;-77
2022/06/22 03:33:37;;;;;;;7.97;2.65;;;13.40;99.90;;;;;;4916674;29;20119;-77
2022/06/22 03:36:11;;;;;;;4.60;2.75;;;13.50;99.90;;;;;;4918123;29;20024;-77
2022/06/22 03:38:41;;;;;;;3.15;2.53;;;13.50;99.90;;;;;;4918272;29;20024;-77
2022/06/22 03:41:13;;;;;;;5.10;2.90;;;13.60;99.90;;;;;;4917834;29;20035;-77
2022/06/22 03:43:56;;;;;;;3.83;2.60;;;13.60;99.90;;;;;;4917608;29;20449;-77
2022/06/22 03:46:34;;;;;;;4.00;3.33;;;13.60;99.90;;;;;;4918049;29;20088;-77
2022/06/22 03:49:45;;;;;;;2.67;2.47;;;13.50;99.90;;;;;;4916457;29;20119;-77
2022/06/22 03:52:44;;;;;;;8.63;3.65;;;13.60;99.90;;;;;;4898474;29;20075;-77
2022/06/22 03:55:19;;;;;;;3.40;2.45;;;13.70;99.90;;;;;;4917976;29;20032;-77
2022/06/22 03:57:49;;;;;;;3.67;2.70;;;13.70;99.90;;;;;;4917952;29;20389;-77
2022/06/22 04:00:16;;;;;;;3.00;2.80;;;13.80;99.90;;;;;;4917677;29;20164;-77
2022/06/22 04:02:42;;;;;;;2.60;2.40;;;13.90;99.90;;;;;;4917205;29;20516;-77
2022/06/22 04:05:24;;;;;;;2.55;2.15;;;14.00;99.90;;;;;;4917983;29;20030;-78
2022/06/22 04:07:51;;;;;;;2.92;2.20;;;14.10;99.90;;;;;;4917468;29;20047;-77
2022/06/22 04:10:19;;;;;;;8.73;2.75;;;14.20;99.90;;;;;;4916232;29;20039;-77
2022/06/22 04:12:48;;;;;;;3.60;2.58;;;14.20;99.90;;;;;;4917764;29;20032;-76
2022/06/22 04:15:38;;;;;;;5.03;2.33;;;14.30;99.90;;;;;;4916794;29;20127;-76
2022/06/22 04:18:21;;;;;;;6.03;2.10;;;14.40;99.90;;;;;;4917529;29;20275;-77
2022/06/22 04:20:54;;;;;;;3.33;2.28;;;14.50;99.90;;;;;;4916360;29;20126;-76
2022/06/22 04:23:46;;;;;;;5.30;2.45;;;14.60;99.90;;;;;;4917460;29;20024;-77
2022/06/22 04:26:22;;;;;;;3.58;2.63;;;14.70;99.90;;;;;;4913388;29;20115;-78
2022/06/22 04:28:53;;;;;;;4.20;2.67;;;14.80;99.90;;;;;;4917703;29;20044;-77
2022/06/22 04:31:31;;;;;;;5.05;2.67;;;14.80;99.90;;;;;;4916222;29;20024;-77
2022/06/22 04:34:05;;;;;;;3.45;2.22;;;15.00;99.90;;;;;;4917402;29;20028;-76
2022/06/22 04:36:37;;;;;;;6.70;2.88;;;15.10;99.90;;;;;;4915704;29;20481;-78
2022/06/22 04:39:18;;;;;;;3.22;2.65;;;15.20;99.90;;;;;;4915841;29;20032;-78
2022/06/22 04:41:45;;;;;;;2.78;2.20;;;15.40;99.90;;;;;;4917300;29;20461;-77
2022/06/22 04:44:18;;;;;;;4.20;2.20;;;15.50;99.90;;;;;;4915871;29;20089;-78
2022/06/22 04:46:52;;;;;;;6.15;2.63;;;15.70;99.90;;;;;;4917197;29;20047;-77
2022/06/22 04:49:40;;;;;;;4.82;2.00;;;15.70;99.90;;;;;;4917195;29;20115;-78
2022/06/22 04:52:30;;;;;;;5.57;1.90;;;15.80;99.90;;;;;;4917225;29;20060;-77
2022/06/22 04:54:59;;;;;;;4.10;2.20;;;16.00;99.90;;;;;;4916023;29;20035;-78
2022/06/22 04:57:32;;;;;;;5.63;2.25;;;16.00;99.90;;;;;;4916155;29;20036;-78
2022/06/22 05:00:00;;;;;;;4.50;2.20;;;16.10;99.90;;;;;;4918123;29;20035;-77
2022/06/22 05:02:28;;;;;;;1.83;1.70;;;16.10;99.90;;;;;;4920734;29;20039;-77
2022/06/22 05:05:17;;;;;;;5.03;1.85;;;16.20;99.90;;;;;;4920580;29;20163;-77
2022/06/22 05:07:53;;;;;;;5.07;2.13;;;16.20;99.90;;;;;;4919718;29;20524;-77
2022/06/22 05:10:28;;;;;;;4.75;2.13;;;16.30;99.90;;;;;;4921027;29;20368;-78
2022/06/22 05:12:59;;;;;;;3.03;1.92;;;16.30;99.90;;;;;;4919711;29;20028;-77
2022/06/22 05:15:33;;;;;;;2.25;1.70;;;16.40;99.90;;;;;;4920493;29;20071;-77
2022/06/22 05:18:01;;;;;;;3.25;2.00;;;16.50;99.90;;;;;;4920432;29;20068;-78
2022/06/22 05:20:39;;;;;;;1.70;1.60;;;16.70;99.90;;;;;;4918506;29;20068;-77
2022/06/22 05:23:06;;;;;;;2.28;1.88;;;16.80;99.90;;;;;;4920347;29;20024;-77
2022/06/22 05:25:33;;;;;;;2.55;1.67;;;16.90;99.90;;;;;;4920008;29;20205;-78
2022/06/22 05:28:16;;;;;;;6.18;1.90;;;17.00;99.90;;;;;;4920331;29;20073;-78
2022/06/22 05:30:58;;;;;;;1.92;1.60;;;17.10;99.90;;;;;;4919328;29;20028;-78
2022/06/22 05:33:25;;;;;;;7.40;1.70;;;17.30;99.90;;;;;;4919746;29;20060;-77
2022/06/22 05:36:01;;;;;;;7.22;1.83;;;17.40;99.90;;;;;;4920252;29;20425;-78
2022/06/22 05:38:28;;;;;;;5.05;2.08;;;17.50;99.90;;;;;;4919952;29;20020;-78
2022/06/22 05:40:55;;;;;;;5.28;1.92;;;17.60;99.90;;;;;;4919699;29;20094;-78
2022/06/22 05:43:23;;;;;;;3.28;2.05;;;17.70;99.90;;;;;;4920191;29;20032;-78
2022/06/22 05:45:57;;;;;;;4.25;1.88;;;17.80;99.90;;;;;;4918522;29;20481;-78
2022/06/22 05:48:25;;;;;;;3.42;1.55;;;18.00;99.90;;;;;;4918745;29;20043;-78
2022/06/22 05:51:14;;;;;;;5.93;1.58;;;18.20;99.90;;;;;;4919651;29;20532;-78
2022/06/22 05:53:52;;;;;;;4.35;1.83;;;18.30;99.90;;;;;;4884200;29;20047;-78
2022/06/22 05:56:23;;;;;;;2.28;1.73;;;18.40;99.90;;;;;;4919722;29;20039;-78
2022/06/22 05:58:54;;;;;;;3.45;1.30;;;18.60;99.90;;;;;;4919480;29;20028;-78
2022/06/22 06:01:39;;;;;;;5.00;2.28;;;18.80;99.90;;;;;;4918658;29;20032;-78
2022/06/22 06:04:21;;;;;;;3.58;1.45;;;18.90;99.90;;;;;;4919761;29;20107;-77
2022/06/22 06:06:48;;;;;;;2.42;1.23;;;19.00;99.90;;;;;;4919478;29;20040;-78
2022/06/22 06:09:20;;;;;;;2.58;1.10;;;19.20;99.90;;;;;;4919320;29;20036;-78
2022/06/22 06:12:00;;;;;;;3.83;1.25;;;19.30;99.90;;;;;;4918448;29;20362;-78
2022/06/22 06:14:39;;;;;;;1.10;1.00;;;19.40;99.90;;;;;;4919610;29;20032;-78
2022/06/22 06:17:17;;;;;;;3.25;1.30;;;19.60;99.90;;;;;;4919502;29;20084;-75
2022/06/22 06:19:48;;;;;;;3.88;2.00;;;19.80;99.70;;;;;;4918315;29;20039;-75
2022/06/22 06:22:14;;;;;;;2.78;1.25;;;20.20;98.50;;;;;;4918290;29;20115;-77
2022/06/22 06:27:34;;;;;;;1.88;1.00;;;20.60;93.40;;;;;;4919237;29;20107;-75
2022/06/22 06:27:38;;;;;;;2.25;0.77;;;20.90;92.00;;;;;;4918668;29;20397;-75
2022/06/22 06:30:29;;;;;;;2.28;0.60;;;21.10;84.70;;;;;;4917999;29;20024;-75
2022/06/22 06:33:04;;;;;;;1.52;0.60;;;21.20;78.40;;;;;;4918041;29;20380;-75
2022/06/22 06:35:33;;;;;;;0.63;0.50;;;21.00;78.80;;;;;;4919031;29;20032;-75
2022/06/22 06:38:17;;;;;;;1.45;0.60;;;21.00;78.60;;;;;;4919094;29;20040;-75
2022/06/22 06:40:53;;;;;;;2.72;1.15;;;20.90;74.80;;;;;;4918947;29;20087;-75
2022/06/22 06:43:23;;;;;;;3.05;0.80;;;20.90;75.90;;;;;;4918600;29;20397;-75
2022/06/22 06:45:51;;;;;;;1.77;0.77;;;21.30;77.30;;;;;;4917336;29;20044;-75
2022/06/22 06:48:23;;;;;;;3.63;0.80;;;21.80;74.70;;;;;;4917467;29;20036;-75
2022/06/22 06:50:51;;;;;;;2.05;0.75;;;22.40;71.40;;;;;;4917871;29;20429;-75
2022/06/22 06:53:23;;;;;;;2.80;0.60;;;22.50;66.40;;;;;;4919019;29;20115;-76
2022/06/22 06:55:54;;;;;;;1.48;0.57;;;22.60;66.20;;;;;;4917637;29;20040;-75
2022/06/22 06:58:50;;;;;;;3.35;0.70;;;22.80;65.60;;;;;;4918689;29;20036;-75
2022/06/22 07:01:23;;;;;;;0.50;0.40;;;22.80;62.90;;;;;;4917337;29;20413;-76
2022/06/22 07:03:53;;;;;;;3.88;0.77;;;23.10;61.30;;;;;;4918645;29;20433;-75
2022/06/22 07:06:19;;;;;;;1.65;0.60;;;23.40;61.80;;;;;;4918314;29;20040;-76
2022/06/22 07:08:55;;;;;;;1.33;0.45;;;23.60;60.70;;;;;;4918047;29;20425;-73
2022/06/22 07:11:31;;;;;;;1.48;0.60;;;23.80;60.50;;;;;;4918155;29;20028;-73
2022/06/22 07:14:11;;;;;;;2.85;0.80;;;23.90;58.50;;;;;;4917044;29;20381;-75
2022/06/22 07:16:37;;;;;;;2.95;0.73;;;23.80;60.70;;;;;;4918489;29;20043;-75
2022/06/22 07:19:11;;;;;;;1.02;0.52;;;24.00;58.50;;;;;;4918372;29;20381;-75
2022/06/22 07:21:51;;;;;;;4.88;0.63;;;23.90;57.00;;;;;;4916938;29;20127;-75
2022/06/22 07:24:29;;;;;;;1.42;0.60;;;23.80;57.50;;;;;;4916606;29;20024;-75
2022/06/22 07:27:03;;;;;;;0.73;0.57;;;23.30;59.10;;;;;;4918183;29;20052;-75
2022/06/22 07:29:52;;;;;;;1.73;0.70;;;23.70;59.20;;;;;;4916804;29;20385;-75
2022/06/22 07:32:39;;;;;;;1.40;0.50;;;23.90;58.10;;;;;;4916763;29;20039;-75
2022/06/22 07:35:14;;;;;;;1.63;0.60;;;23.60;56.80;;;;;;4918093;29;20115;-75
2022/06/22 07:37:50;;;;;;;1.33;0.52;;;23.10;58.10;;;;;;4918196;29;20024;-75
2022/06/22 07:40:21;;;;;;;3.45;0.80;;;23.00;58.60;;;;;;4918396;29;20043;-75
2022/06/22 07:42:49;;;;;;;1.77;0.70;;;22.60;59.60;;;;;;4917841;29;20036;-75
2022/06/22 07:45:19;;;;;;;2.15;0.80;;;22.70;61.20;;;;;;4916855;29;20111;-75
2022/06/22 07:47:57;;;;;;;2.90;0.88;;;22.90;61.00;;;;;;4917787;29;20385;-75
2022/06/22 07:50:32;;;;;;;1.13;0.70;;;23.20;60.90;;;;;;4916248;29;20036;-75
2022/06/22 07:53:17;;;;;;;0.80;0.60;;;23.70;58.60;;;;;;4917821;29;20032;-75
2022/06/22 07:56:19;;;;;;;3.58;0.70;;;23.60;57.50;;;;;;4917445;29;20035;-75
2022/06/22 07:58:54;;;;;;;3.65;0.60;;;23.30;59.60;;;;;;4899889;29;20048;-75
2022/06/22 08:01:29;;;;;;;1.55;0.82;;;23.20;59.10;;;;;;4917675;29;20025;-75
2022/06/22 08:04:00;;;;;;;2.05;0.57;;;23.20;58.80;;;;;;4917649;29;20111;-75
2022/06/22 08:06:33;;;;;;;1.00;0.60;;;23.00;58.60;;;;;;4917127;29;20066;-75
2022/06/22 08:09:16;;;;;;;2.80;0.73;;;23.40;58.70;;;;;;4917297;29;20373;-75
2022/06/22 08:11:54;;;;;;;1.17;0.60;;;24.20;57.60;;;;;;4916180;29;20490;-75
2022/06/22 08:14:26;;;;;;;3.00;0.75;;;24.90;55.30;;;;;;4917670;29;20034;-75
2022/06/22 08:16:58;;;;;;;1.25;0.60;;;25.00;53.90;;;;;;4917543;29;20042;-72
2022/06/22 08:19:27;;;;;;;1.80;0.57;;;25.30;54.80;;;;;;4917694;29;20175;-72
2022/06/22 08:21:58;;;;;;;1.92;0.60;;;25.50;53.40;;;;;;4917400;29;20028;-75
2022/06/22 08:24:25;;;;;;;2.47;0.68;;;25.20;53.70;;;;;;4916538;29;20063;-75
2022/06/22 08:26:54;;;;;;;2.10;0.57;;;25.20;53.90;;;;;;4915850;29;20485;-75
2022/06/22 08:29:24;;;;;;;4.63;0.77;;;24.90;54.40;;;;;;4917594;29;20036;-74
2022/06/22 08:32:08;;;;;;;4.18;0.88;;;25.50;54.20;;;;;;4917129;29;20039;-72
2022/06/22 08:34:42;;;;;;;2.38;0.90;;;25.90;53.00;;;;;;4919620;29;20047;-75
2022/06/22 08:37:14;;;;;;;1.55;0.60;;;26.40;52.30;;;;;;4920693;29;20433;-75
2022/06/22 08:40:15;;;;;;;2.95;0.75;;;26.20;53.40;;;;;;4921117;29;20032;-75
2022/06/22 08:42:54;;;;;;;2.28;0.57;;;26.20;53.00;;;;;;4896969;29;20040;-75
2022/06/22 08:45:28;;;;;;;2.08;0.98;;;26.10;53.00;;;;;;4919579;29;20032;-73
2022/06/22 08:48:11;;;;;;;4.57;0.77;;;25.80;53.20;;;;;;4921144;29;20181;-73
2022/06/22 08:51:04;;;;;;;2.15;0.60;;;25.80;54.00;;;;;;4919909;29;20052;-75
2022/06/22 08:53:45;;;;;;;2.45;0.68;;;25.00;54.40;;;;;;4919629;29;20385;-75
2022/06/22 08:56:16;;;;;;;2.05;0.95;;;24.40;56.60;;;;;;4920923;29;20025;-75
2022/06/22 08:59:23;;;;;;;1.10;1.00;;;24.40;57.00;;;;;;4920481;29;20028;-75
2022/06/22 09:02:10;;;;;;;2.63;0.50;;;24.50;56.70;;;;;;4910096;29;20048;-75
2022/06/22 09:04:38;;;;;;;1.83;0.70;;;24.90;57.20;;;;;;4920734;29;20063;-75
2022/06/22 09:07:07;;;;;;;1.42;0.82;;;25.00;55.20;;;;;;4920532;29;20115;-74
2022/06/22 09:10:00;;;;;;;2.47;0.70;;;25.00;55.40;;;;;;4920665;29;20111;-75
2022/06/22 09:13:05;;;;;;;1.88;0.65;;;25.20;55.70;;;;;;4920684;29;20084;-75
2022/06/22 09:15:39;;;;;;;1.80;1.05;;;25.80;53.80;;;;;;4920486;29;20040;-75
2022/06/22 09:18:50;;;;;;;1.10;0.55;;;25.70;53.10;;;;;;4920347;29;20035;-75
2022/06/22 09:21:19;;;;;;;1.33;0.95;;;25.50;55.00;;;;;;4890514;29;20123;-75
2022/06/22 09:23:57;;;;;;;1.38;0.68;;;26.20;52.80;;;;;;4919898;29;20385;-75
2022/06/22 09:26:34;;;;;;;2.20;0.60;;;27.20;50.60;;;;;;4920311;29;20135;-75
2022/06/22 09:29:08;;;;;;;2.38;0.70;;;27.70;49.70;;;;;;4920486;29;20036;-74
2022/06/22 09:31:45;;;;;;;4.03;1.30;;;27.70;49.10;;;;;;4920026;29;20107;-75
2022/06/22 09:34:40;;;;;;;1.67;0.80;;;27.40;49.20;;;;;;4920131;29;20031;-75
2022/06/22 09:37:24;;;;;;;2.00;0.63;;;27.20;49.60;;;;;;4919948;29;20092;-75
2022/06/22 09:40:08;;;;;;;4.00;0.85;;;26.60;49.00;;;;;;4918777;29;20119;-75
2022/06/22 09:42:40;;;;;;;4.22;0.88;;;26.30;51.50;;;;;;4920354;29;20048;-75
2022/06/22 09:45:29;;;;;;;1.98;0.80;;;26.30;51.70;;;;;;4919324;29;20039;-75
2022/06/22 09:48:40;;;;;;;1.80;0.80;;;26.50;50.90;;;;;;4919926;29;20084;-76
2022/06/22 09:51:34;;;;;;;2.95;0.82;;;27.20;49.10;;;;;;4915747;29;20040;-76
2022/06/22 09:57:14;;;;;;;1.75;0.80;;;27.70;48.80;;;;;;4919965;29;20051;-75
2022/06/22 09:59:40;;;;;;;3.80;0.93;;;28.40;49.00;;;;;;4918561;29;20497;-75
2022/06/22 10:02:49;;;;;;;1.35;0.68;;;28.70;48.50;;;;;;4918396;29;20028;-75
2022/06/22 10:05:36;;;;;;;2.17;0.63;;;28.70;47.60;;;;;;4919609;29;20063;-75
2022/06/22 10:08:22;;;;;;;4.20;0.80;;;28.80;48.00;;;;;;4919456;29;20036;-75
2022/06/22 10:11:07;;;;;;;1.45;0.98;;;29.50;46.10;;;;;;4918492;29;20492;-76
2022/06/22 10:13:55;;;;;;;1.15;0.80;;;29.20;45.10;;;;;;4919178;29;20032;-75
2022/06/22 10:16:45;;;;;;;4.32;1.00;;;28.80;46.10;;;;;;4918082;29;20114;-76
2022/06/22 10:19:34;;;;;;;0.80;0.80;;;29.10;46.40;;;;;;4919313;29;20032;-76
2022/06/22 10:22:21;;;;;;;3.53;0.95;;;29.20;45.70;;;;;;4918140;29;20434;-75
2022/06/22 10:24:50;;;;;;;3.58;0.82;;;28.30;45.50;;;;;;4918099;29;20062;-75
2022/06/22 10:27:34;;;;;;;3.78;0.80;;;27.70;47.10;;;;;;4919644;29;20060;-75
2022/06/22 10:30:05;;;;;;;1.98;0.88;;;28.20;47.10;;;;;;4919010;29;20385;-75
2022/06/22 10:32:40;;;;;;;2.20;1.20;;;28.40;46.60;;;;;;4918847;29;20080;-76
2022/06/22 10:35:14;;;;;;;1.25;0.80;;;28.80;46.80;;;;;;4918946;29;20024;-75
2022/06/22 10:38:15;;;;;;;5.93;0.90;;;29.00;45.50;;;;;;4917785;29;20532;-76
2022/06/22 10:47:23;;;;;;;1.30;0.70;;;30.90;42.70;;;;;;4879000;29;20405;-75
2022/06/22 10:50:03;;;;;;;1.00;0.90;;;29.90;42.80;;;;;;4916253;29;20111;-75
2022/06/22 10:52:54;;;;;;;5.47;1.00;;;29.80;43.90;;;;;;4918384;29;20507;-75
2022/06/22 10:55:39;;;;;;;3.58;1.02;;;29.40;43.40;;;;;;4918640;29;20050;-75
2022/06/22 10:58:45;;;;;;;1.80;0.88;;;29.40;43.30;;;;;;4917304;29;20119;-74
2022/06/22 11:01:26;;;;;;;1.55;1.08;;;30.30;43.30;;;;;;4850548;29;20069;-74
2022/06/22 11:04:42;;;;;;;2.78;0.93;;;31.00;42.60;;;;;;4917260;29;20088;-74
2022/06/22 11:07:25;;;;;;;1.90;0.98;;;31.70;40.50;;;;;;4841535;29;20045;-74
2022/06/22 11:10:18;;;;;;;2.78;1.10;;;30.90;41.20;;;;;;4841552;29;20045;-75
2022/06/22 11:12:46;;;;;;;1.98;0.90;;;31.60;41.10;;;;;;4907247;29;20047;-74
2022/06/22 11:15:32;;;;;;;;;;;32.10;40.40;;;;;;4918700;29;20035;-75
2022/06/22 11:18:04;;;;;;;3.28;1.10;;;32.80;40.00;;;;;;4918172;29;20263;-75
2022/06/22 11:20:51;;;;;;;2.75;0.85;;;32.90;39.20;;;;;;4917932;29;20024;-74
2022/06/22 11:23:42;;;;;;;4.72;1.05;;;33.10;38.90;;;;;;4917945;29;20032;-75
2022/06/22 11:33:09;;;;;;;1.10;1.00;;;32.80;38.30;;;;;;4917933;29;20042;-75
2022/06/22 11:35:56;;;;;;;1.95;1.05;;;32.50;39.00;;;;;;4917871;29;20079;-75
2022/06/22 11:38:27;;;;;;;4.03;0.90;;;32.10;38.60;;;;;;4917322;29;20059;-75
2022/06/22 11:40:59;;;;;;;5.03;1.10;;;31.60;39.70;;;;;;4917909;29;20375;-75
2022/06/22 11:43:28;;;;;;;2.47;1.00;;;32.10;40.20;;;;;;4917816;29;20112;-75
2022/06/22 11:46:15;;;;;;;3.05;0.90;;;32.50;39.20;;;;;;4917717;29;20056;-75
2022/06/22 11:48:59;;;;;;;3.43;1.27;;;32.80;38.60;;;;;;4917612;29;20042;-78
2022/06/22 11:51:58;;;;;;;1.77;1.02;;;32.50;38.30;;;;;;4918178;29;20032;-75
2022/06/22 11:54:37;;;;;;;1.45;0.90;;;32.10;39.90;;;;;;4916456;29;20034;-75
2022/06/22 11:57:57;;;;;;;3.30;1.10;;;32.10;39.20;;;;;;4917762;29;20059;-77
2022/06/22 12:00:57;;;;;;;1.75;0.80;;;32.10;39.30;;;;;;4841085;29;20057;-77
2022/06/22 12:03:38;;;;;;;3.08;0.98;;;32.60;39.10;;;;;;4916369;29;20521;-77
2022/06/22 12:06:32;;;;;;;1.73;0.88;;;33.50;38.10;;;;;;4916331;29;20028;-77
2022/06/22 12:09:03;;;;;;;1.40;1.30;;;33.50;38.20;;;;;;4917167;29;20118;-78
2022/06/22 12:11:39;;;;;;;3.85;1.10;;;32.60;37.90;;;;;;4917910;29;20036;-74
2022/06/22 12:17:32;;;;;;;2.53;1.05;;;31.60;40.70;;;;;;4917358;29;20530;-75
2022/06/22 12:20:25;;;;;;;2.25;1.00;;;32.40;40.80;;;;;;4917605;29;20036;-76
2022/06/22 12:23:33;;;;;;;3.40;1.20;;;32.70;38.30;;;;;;4917705;29;20107;-76
2022/06/22 12:26:21;;;;;;;3.95;1.27;;;32.00;39.30;;;;;;4917407;29;20056;-75
2022/06/22 12:29:16;;;;;;;3.45;1.02;;;32.30;39.10;;;;;;4917043;29;20044;-76
2022/06/22 12:31:48;;;;;;;4.07;1.10;;;32.00;39.70;;;;;;4908505;29;20040;-78
2022/06/22 12:34:17;;;;;;;1.02;1.00;;;31.90;40.20;;;;;;4917496;29;20028;-76
2022/06/22 12:36:48;;;;;;;2.30;1.25;;;31.50;40.30;;;;;;4917862;29;20032;-76
2022/06/22 12:39:21;;;;;;;2.53;1.05;;;31.10;41.70;;;;;;4917311;29;20369;-78
2022/06/22 12:42:08;;;;;;;2.17;0.98;;;30.90;41.80;;;;;;4917452;29;20088;-76
2022/06/22 12:45:11;;;;;;;1.63;1.10;;;31.50;41.40;;;;;;4917385;29;20032;-76
2022/06/22 12:47:51;;;;;;;2.42;0.88;;;31.70;41.00;;;;;;4916838;29;20046;-77
2022/06/22 12:50:45;;;;;;;3.55;1.23;;;30.90;41.80;;;;;;4917155;29;20032;-77
2022/06/22 12:53:34;;;;;;;3.38;1.00;;;30.40;42.70;;;;;;4917286;29;20095;-77
2022/06/22 12:56:42;;;;;;;3.63;1.50;;;30.20;44.10;;;;;;4916774;29;20439;-76
2022/06/22 12:59:23;;;;;;;1.63;1.23;;;29.90;47.30;;;;;;4912830;29;20044;-76
2022/06/22 13:01:49;;;;;;;3.22;1.45;;;29.80;45.60;;;;;;4917200;29;20032;-76
2022/06/22 13:04:24;;;;;;;2.88;0.95;;;29.00;46.20;;;;;;4917011;29;20471;-76
2022/06/22 13:06:53;;;;;;;4.05;1.00;;;28.70;46.50;;;;;;4915705;29;20036;-76
2022/06/22 13:09:21;;;;;;;5.20;1.38;;;28.80;48.10;;;;;;4917414;29;20511;-76
2022/06/22 13:11:49;;;;;;;3.33;1.00;;;29.00;47.30;;;;;;4917193;29;20032;-76
2022/06/22 13:14:21;;;;;;;1.02;1.02;;;28.80;47.00;;;;;;4917231;29;20052;-76
2022/06/22 13:17:03;;;;;;;3.42;1.05;;;28.30;48.40;;;;;;4917007;29;20033;-76
2022/06/22 13:19:42;;;;;;;3.10;1.23;;;28.20;47.40;;;;;;4916903;29;20067;-76
2022/06/22 13:22:26;;;;;;;3.05;1.10;;;27.90;47.20;;;;;;4919544;29;20047;-76
2022/06/22 13:25:15;;;;;;;3.88;1.10;;;27.90;48.00;;;;;;4920698;29;20032;-76
2022/06/22 13:28:14;;;;;;;3.30;1.15;;;28.30;49.10;;;;;;4919038;29;20036;-76
2022/06/22 13:31:02;;;;;;;9.18;1.45;;;27.90;49.60;;;;;;4920294;29;20067;-76
2022/06/22 13:33:37;;;;;;;2.80;1.07;;;28.20;52.20;;;;;;4920273;29;20107;-76
2022/06/22 13:36:11;;;;;;;2.15;1.17;;;28.00;49.30;;;;;;4925747;29;20114;-76
2022/06/22 13:38:49;;;;;;;3.80;1.20;;;27.80;51.50;;;;;;4938599;29;20067;-55
2022/06/22 13:41:25;;;;;;;3.15;1.10;;;27.80;53.50;;;;;;4941627;29;20042;-55
2022/06/22 13:43:54;;;;;;;3.35;1.23;;;27.70;52.20;;;;;;4939104;29;20032;-55
2022/06/22 13:46:42;;;;;;;2.35;1.15;;;27.60;54.70;;;;;;4938734;29;20027;-55
2022/06/22 13:49:16;;;;;;;1.50;1.00;;;27.40;52.70;;;;;;4938877;29;20035;-55
2022/06/22 13:52:12;;;;;;;1.58;1.05;;;27.40;53.10;;;;;;4938715;29;20028;-55
2022/06/22 13:54:51;;;;;;;3.72;1.20;;;27.50;54.70;;;;;;4938701;29;20038;-55
2022/06/22 13:57:35;;;;;;;4.03;1.23;;;27.60;56.50;;;;;;4938754;29;20034;-55
2022/06/22 14:00:14;;;;;;;1.80;1.35;;;27.70;54.00;;;;;;4938454;29;20543;-55
2022/06/22 14:02:45;;;;;;;;;;;27.90;55.60;;;;;;4939130;29;20038;-55
2022/06/22 14:05:34;;;;;;;2.45;1.33;;;28.50;53.50;;;;;;4919236;29;19935;-57
2022/06/22 14:08:19;;;;;;;2.15;1.52;;;28.70;50.30;;;;;;4919514;29;20036;-76
2022/06/22 14:11:05;;;;;;;1.77;0.93;;;28.80;50.70;;;;;;4919554;29;20020;-76